Time;durP1;ratioP1;P1;durP2;ratioP2;P2;SDS_P1;SDS_P2;PMS_P1;PMS_P2;Temp;Humidity;BMP_temperature;BMP_pressure;BME280_temperature;BME280_humidity;BME280_pressure;Samples;Min_cycle;Max_cycle;Signal;HPM_P1;HPM_P2
2024/01/05 00:02:50;;;;;;;6.60;1.70;;;;;;;4.32;100.00;97567.19;15284312;19;20027;-52
2024/01/05 00:08:15;;;;;;;7.57;1.60;;;;;;;4.30;100.00;97571.00;15285739;19;20019;-53
2024/01/05 00:13:50;;;;;;;3.15;1.20;;;;;;;4.27;100.00;97580.13;15284461;19;20019;-53
2024/01/05 00:19:15;;;;;;;7.97;1.50;;;;;;;4.22;100.00;97568.22;15282713;19;20024;-54
2024/01/05 00:24:39;;;;;;;4.93;1.50;;;;;;;4.18;100.00;97570.28;15288177;19;20102;-52
2024/01/05 00:30:07;;;;;;;7.85;1.50;;;;;;;4.13;100.00;97560.06;15288189;19;20024;-51
2024/01/05 00:35:32;;;;;;;7.40;1.63;;;;;;;4.11;100.00;97558.53;15280623;19;20468;-54
2024/01/05 00:40:57;;;;;;;6.50;1.40;;;;;;;4.12;100.00;97552.22;15287681;19;20077;-51
2024/01/05 00:46:25;;;;;;;7.18;1.55;;;;;;;4.08;100.00;97540.16;15287927;19;20018;-54
2024/01/05 00:51:50;;;;;;;5.57;1.50;;;;;;;4.04;100.00;97544.09;15285165;19;20010;-54
2024/01/05 00:57:15;;;;;;;5.43;1.30;;;;;;;3.98;100.00;97538.34;15285468;19;20040;-55
2024/01/05 01:02:43;;;;;;;7.20;1.40;;;;;;;3.95;100.00;97538.59;15284093;19;20039;-54
2024/01/05 01:08:07;;;;;;;5.85;1.50;;;;;;;3.97;100.00;97549.16;15272097;19;20416;-63
2024/01/05 01:13:32;;;;;;;6.78;1.40;;;;;;;3.94;100.00;97544.91;15278682;19;20015;-63
2024/01/05 01:18:59;;;;;;;7.38;1.40;;;;;;;3.92;100.00;97549.56;15285393;19;20016;-63
2024/01/05 01:24:24;;;;;;;5.95;1.25;;;;;;;3.85;100.00;97529.78;15282197;19;20031;-63
2024/01/05 01:29:48;;;;;;;5.70;1.30;;;;;;;3.81;100.00;97517.75;15286306;19;20014;-63
2024/01/05 01:35:16;;;;;;;5.93;1.10;;;;;;;3.80;100.00;97521.38;15292433;19;20023;-64
2024/01/05 01:40:40;;;;;;;6.63;1.25;;;;;;;3.76;100.00;97511.97;15298782;19;20479;-63
2024/01/05 01:46:05;;;;;;;6.63;1.40;;;;;;;3.79;100.00;97501.06;15304597;19;20018;-64
2024/01/05 01:51:32;;;;;;;8.60;1.50;;;;;;;3.79;100.00;97499.22;15296029;19;20032;-63
2024/01/05 01:56:57;;;;;;;5.40;1.20;;;;;;;3.81;100.00;97491.09;15298021;19;20014;-64
2024/01/05 02:02:22;;;;;;;7.03;1.40;;;;;;;3.78;100.00;97486.03;15303067;19;20015;-64
2024/01/05 02:07:50;;;;;;;6.40;1.40;;;;;;;3.79;100.00;97499.22;15301962;19;20340;-64
2024/01/05 02:13:15;;;;;;;5.88;1.40;;;;;;;3.80;100.00;97494.75;15303850;19;20015;-64
2024/01/05 02:18:40;;;;;;;6.72;1.27;;;;;;;3.81;100.00;97489.25;15299359;19;20031;-64
2024/01/05 02:24:07;;;;;;;6.50;1.20;;;;;;;3.83;100.00;97489.13;15297700;19;20355;-64
2024/01/05 02:29:32;;;;;;;5.13;1.20;;;;;;;3.83;100.00;97473.13;15299821;19;20022;-64
2024/01/05 02:34:58;;;;;;;4.97;1.40;;;;;;;3.89;100.00;97466.38;15297814;19;20018;-62
2024/01/05 02:40:26;;;;;;;5.78;1.35;;;;;;;3.94;100.00;97458.81;15292558;19;20041;-63
2024/01/05 02:45:51;;;;;;;6.00;1.45;;;;;;;3.92;100.00;97450.97;15298000;19;20010;-63
2024/01/05 02:51:17;;;;;;;10.00;1.40;;;;;;;3.91;100.00;97443.09;15290066;19;20031;-63
2024/01/05 02:56:44;;;;;;;7.90;1.80;;;;;;;3.91;100.00;97422.66;15292021;19;20010;-63
2024/01/05 03:02:09;;;;;;;5.82;1.23;;;;;;;3.94;100.00;97435.66;15289099;19;20692;-63
2024/01/05 03:07:34;;;;;;;7.50;1.50;;;;;;;3.94;100.00;97414.34;15296474;19;20022;-63
2024/01/05 03:13:02;;;;;;;8.45;1.75;;;;;;;3.95;100.00;97391.22;15298716;19;20092;-63
2024/01/05 03:18:20;;;;;;;6.85;1.55;;;;;;;3.96;100.00;97383.06;15294653;19;20025;-63
2024/01/05 03:23:44;;;;;;;6.30;1.40;;;;;;;4.01;100.00;97391.47;15298673;19;20022;-63
2024/01/05 03:29:12;;;;;;;5.72;1.45;;;;;;;4.08;100.00;97393.56;15287884;19;20014;-64
2024/01/05 03:34:36;;;;;;;9.57;1.58;;;;;;;4.15;100.00;97387.50;15294790;19;20077;-63
2024/01/05 03:40:02;;;;;;;6.95;1.65;;;;;;;4.26;100.00;97382.97;15289304;19;20388;-63
2024/01/05 03:45:32;;;;;;;8.25;1.58;;;;;;;4.33;100.00;97370.75;15294748;19;20018;-63
2024/01/05 03:50:57;;;;;;;6.63;1.50;;;;;;;4.40;100.00;97371.00;15286958;19;20038;-63
2024/01/05 03:56:21;;;;;;;7.18;1.45;;;;;;;4.43;100.00;97363.53;15296354;19;20014;-63
2024/01/05 04:01:50;;;;;;;7.22;1.73;;;;;;;4.48;100.00;97361.22;15282566;19;20024;-62
2024/01/05 04:07:14;;;;;;;5.32;1.35;;;;;;;4.56;100.00;97363.16;15292350;19;20010;-60
2024/01/05 04:12:45;;;;;;;6.22;1.70;;;;;;;4.67;100.00;97363.94;15291470;19;20032;-61
2024/01/05 04:18:13;;;;;;;8.02;1.70;;;;;;;4.74;100.00;97357.84;15290640;19;20534;-59
2024/01/05 04:23:37;;;;;;;6.28;1.55;;;;;;;4.81;100.00;97355.41;15292853;19;20020;-61
2024/01/05 04:29:02;;;;;;;7.38;1.50;;;;;;;4.86;100.00;97362.97;15291711;19;20022;-58
2024/01/05 04:34:30;;;;;;;5.57;1.40;;;;;;;4.93;100.00;97354.22;15290413;19;20014;-59
2024/01/05 04:39:55;;;;;;;6.38;1.60;;;;;;;4.94;100.00;97350.56;15284438;19;20029;-58
2024/01/05 04:45:20;;;;;;;7.25;1.55;;;;;;;4.93;100.00;97338.19;15287303;19;20021;-61
2024/01/05 04:50:48;;;;;;;6.60;1.50;;;;;;;4.92;100.00;97328.50;15283272;19;20010;-60
2024/01/05 04:56:14;;;;;;;8.80;1.65;;;;;;;4.92;100.00;97328.50;15285870;19;20021;-58
2024/01/05 05:01:40;;;;;;;7.68;1.65;;;;;;;4.96;100.00;97315.69;15282200;19;20015;-61
2024/01/05 05:07:07;;;;;;;7.82;1.70;;;;;;;4.96;100.00;97309.53;15285216;19;20134;-60
2024/01/05 05:12:39;;;;;;;7.35;1.63;;;;;;;4.93;100.00;97306.16;15286535;19;20094;-58
2024/01/05 05:18:04;;;;;;;7.85;1.80;;;;;;;4.90;100.00;97297.63;15284080;19;20039;-61
2024/01/05 05:23:31;;;;;;;8.20;1.70;;;;;;;4.87;100.00;97290.78;15286027;19;20063;-60
2024/01/05 05:28:56;;;;;;;12.27;1.70;;;;;;;4.94;100.00;97299.84;15287529;19;20031;-58
2024/01/05 05:34:22;;;;;;;9.77;2.13;;;;;;;4.99;100.00;97306.56;15289967;19;20369;-59
2024/01/05 05:39:50;;;;;;;7.07;1.60;;;;;;;4.98;100.00;97316.38;15282920;19;20019;-59
2024/01/05 05:45:16;;;;;;;7.57;1.40;;;;;;;4.97;100.00;97303.19;15286088;19;20718;-59
2024/01/05 05:50:41;;;;;;;7.43;1.60;;;;;;;4.92;100.00;97296.47;15278152;19;20025;-58
2024/01/05 05:56:09;;;;;;;9.27;1.70;;;;;;;4.93;100.00;97308.84;15286879;19;20029;-60
2024/01/05 06:01:34;;;;;;;8.20;2.10;;;;;;;4.96;100.00;97306.88;15279087;19;20073;-61
2024/01/05 06:06:59;;;;;;;7.28;1.60;;;;;;;4.98;100.00;97313.72;15286974;19;20010;-61
2024/01/05 06:12:33;;;;;;;7.80;1.80;;;;;;;4.99;100.00;97314.56;15279050;19;20344;-61
2024/01/05 06:17:58;;;;;;;7.97;1.80;;;;;;;5.04;100.00;97313.13;15281864;19;20477;-60
2024/01/05 06:23:22;;;;;;;5.30;1.60;;;;;;;5.08;100.00;97321.66;15293060;19;20483;-61
2024/01/05 06:28:50;;;;;;;8.40;1.88;;;;;;;5.09;100.00;97320.66;15296649;19;20018;-61
2024/01/05 06:34:14;;;;;;;8.13;1.60;;;;;;;5.12;100.00;97308.81;15299499;19;20029;-61
2024/01/05 06:39:39;;;;;;;5.93;1.80;;;;;;;5.15;100.00;97324.53;15296919;19;20490;-60
2024/01/05 06:45:07;;;;;;;5.88;1.50;;;;;;;5.17;100.00;97322.56;15296297;19;20486;-59
2024/01/05 06:50:32;;;;;;;5.13;1.52;;;;;;;5.19;100.00;97313.41;15287653;19;20035;-59
2024/01/05 06:55:57;;;;;;;8.10;1.70;;;;;;;5.22;100.00;97310.44;15299128;19;20398;-60
2024/01/05 07:01:25;;;;;;;7.93;1.73;;;;;;;5.22;100.00;97310.44;15283824;19;20058;-59
2024/01/05 07:06:49;;;;;;;6.55;1.63;;;;;;;5.25;100.00;97301.25;14782558;19;10001140;-61
2024/01/05 07:12:14;;;;;;;5.80;1.60;;;;;;;5.27;100.00;97293.09;15294091;19;20533;-62
2024/01/05 07:17:41;;;;;;;5.88;1.40;;;;;;;5.25;100.00;97299.41;15289492;19;20017;-60
2024/01/05 07:23:06;;;;;;;6.95;1.70;;;;;;;5.28;100.00;97286.75;15294348;19;20046;-62
2024/01/05 07:28:30;;;;;;;7.85;1.60;;;;;;;5.28;100.00;97278.75;15290361;19;20029;-63
2024/01/05 07:33:58;;;;;;;7.13;1.60;;;;;;;5.31;100.00;97278.44;15294935;19;20020;-61
2024/01/05 07:39:24;;;;;;;4.78;1.40;;;;;;;5.29;100.00;97267.94;15291977;19;20018;-62
2024/01/05 07:44:51;;;;;;;4.63;1.23;;;;;;;5.23;100.00;97253.34;15294411;19;20487;-62
2024/01/05 07:50:19;;;;;;;5.38;1.45;;;;;;;5.16;100.00;97252.28;15287406;19;20029;-61
2024/01/05 07:55:44;;;;;;;7.07;1.30;;;;;;;5.11;100.00;97249.28;15295817;19;20021;-62
2024/01/05 08:01:08;;;;;;;5.90;1.40;;;;;;;5.07;100.00;97243.38;15283266;19;20019;-60
2024/01/05 08:06:36;;;;;;;4.72;1.50;;;;;;;5.06;100.00;97247.03;15294872;19;20086;-62
2024/01/05 08:12:07;;;;;;;5.50;1.40;;;;;;;5.04;100.00;97238.38;15284000;19;20026;-62
2024/01/05 08:17:35;;;;;;;6.50;1.45;;;;;;;5.06;100.00;97249.72;15291299;19;20014;-62
2024/01/05 08:23:02;;;;;;;6.65;1.40;;;;;;;5.10;100.00;97252.94;15288135;19;20014;-61
2024/01/05 08:28:30;;;;;;;6.07;1.58;;;;;;;5.15;100.00;97255.13;15287933;19;20022;-63
2024/01/05 08:33:54;;;;;;;6.95;1.45;;;;;;;5.22;100.00;97257.03;15288378;19;20014;-63
2024/01/05 08:39:22;;;;;;;5.22;1.63;;;;;;;5.33;100.00;97271.94;15283576;19;20031;-63
2024/01/05 08:44:47;;;;;;;7.82;1.70;;;;;;;5.45;100.00;97279.69;15286255;19;20014;-63
2024/01/05 08:50:12;;;;;;;7.45;1.75;;;;;;;5.59;100.00;97286.28;15288471;19;20029;-63
2024/01/05 08:55:40;;;;;;;4.30;1.48;;;;;;;5.70;100.00;97289.53;15287058;19;20006;-62
2024/01/05 09:01:05;;;;;;;5.38;1.50;;;;;;;5.81;100.00;97283.09;15287395;19;20077;-62
2024/01/05 09:06:32;;;;;;;4.40;1.33;;;;;;;5.91;100.00;97290.16;15291339;19;20025;-63
2024/01/05 09:12:06;;;;;;;3.88;1.27;;;;;;;6.02;100.00;97284.56;15283831;19;20023;-62
2024/01/05 09:17:32;;;;;;;4.25;1.38;;;;;;;6.15;100.00;97276.91;15287322;19;20019;-62
2024/01/05 09:22:56;;;;;;;4.22;1.20;;;;;;;6.23;100.00;97264.56;15284006;19;20041;-63
2024/01/05 09:28:24;;;;;;;4.82;1.42;;;;;;;6.31;100.00;97268.09;15287379;19;20110;-63
2024/01/05 09:33:49;;;;;;;4.50;1.30;;;;;;;6.42;100.00;97253.56;15287654;19;20839;-62
2024/01/05 09:39:14;;;;;;;4.47;1.30;;;;;;;6.56;100.00;97245.91;15285966;19;20053;-63
2024/01/05 09:44:41;;;;;;;4.50;1.30;;;;;;;6.62;100.00;97232.72;15289807;19;20026;-63
2024/01/05 09:50:08;;;;;;;4.30;1.30;;;;;;;6.70;100.00;97242.59;15286577;19;20015;-61
2024/01/05 09:55:32;;;;;;;2.03;1.13;;;;;;;6.75;100.00;97220.69;15288699;19;20809;-62
2024/01/05 10:01:06;;;;;;;3.25;1.10;;;;;;;6.74;100.00;97195.78;15297995;19;20505;-63
2024/01/05 10:06:32;;;;;;;3.65;1.10;;;;;;;6.74;100.00;97192.22;15302820;19;20015;-64
2024/01/05 10:12:04;;;;;;;3.63;1.13;;;;;;;6.78;100.00;97197.09;15290993;19;20037;-61
2024/01/05 10:17:32;;;;;;;2.53;1.08;;;;;;;6.77;100.00;97186.56;15298386;19;20032;-64
2024/01/05 10:22:56;;;;;;;5.13;1.85;;;;;;;6.77;100.00;97178.53;15039763;19;5001760;-63
2024/01/05 10:28:32;;;;;;;2.80;1.17;;;;;;;6.81;100.00;97155.78;15292293;19;20014;-62
2024/01/05 10:34:00;;;;;;;3.65;0.98;;;;;;;6.84;100.00;97133.19;15299223;19;20227;-62
2024/01/05 10:39:26;;;;;;;4.05;1.00;;;;;;;6.89;100.00;97137.03;15297873;19;20019;-63
2024/01/05 10:44:54;;;;;;;3.40;0.90;;;;;;;6.95;100.00;97135.50;15299051;19;20106;-63
2024/01/05 10:50:22;;;;;;;3.08;1.02;;;;;;;6.96;100.00;97134.50;15294464;19;20372;-63
2024/01/05 10:55:47;;;;;;;4.25;1.00;;;;;;;7.02;100.00;97115.06;15298141;19;20019;-65
2024/01/05 11:01:15;;;;;;;2.75;1.02;;;;;;;7.07;100.00;97102.00;15289464;19;20475;-63
2024/01/05 11:06:46;;;;;;;2.88;0.93;;;;;;;7.08;100.00;97110.88;15291209;19;20479;-63
2024/01/05 11:12:24;;;;;;;4.00;0.98;;;;;;;7.19;100.00;97117.72;15279405;19;20038;-64
2024/01/05 11:18:05;;;;;;;3.13;1.20;;;;;;;7.18;100.00;97124.06;15296113;19;20086;-62
2024/01/05 11:23:36;;;;;;;2.33;1.00;;;;;;;7.18;100.00;97118.72;15290357;19;20482;-63
2024/01/05 11:29:04;;;;;;;3.95;1.00;;;;;;;7.22;100.00;97114.69;15294371;19;20810;-62
2024/01/05 11:34:34;;;;;;;4.57;1.20;;;;;;;7.28;100.00;97119.34;15283944;19;20022;-62
2024/01/05 11:40:02;;;;;;;3.28;1.42;;;;;;;7.33;100.00;97106.28;15294966;19;20025;-62
2024/01/05 11:45:50;;;;;;;5.78;1.25;;;;;;;7.36;100.00;97094.38;15296499;19;20479;-62
2024/01/05 11:51:17;;;;;;;1.92;0.80;;;;;;;7.37;100.00;97091.50;15270551;19;20074;-62
2024/01/05 11:56:44;;;;;;;2.78;1.20;;;;;;;7.44;100.00;97088.16;15296794;19;20482;-63
2024/01/05 12:02:09;;;;;;;2.25;0.80;;;;;;;7.51;100.00;97075.72;15289471;19;20040;-63
2024/01/05 12:07:33;;;;;;;3.55;1.40;;;;;;;7.59;100.00;97061.44;15289181;19;20015;-62
2024/01/05 12:13:03;;;;;;;5.13;1.27;;;;;;;7.65;100.00;97079.50;15291067;19;20025;-62
2024/01/05 12:18:30;;;;;;;2.58;1.00;;;;;;;7.69;100.00;97073.63;15292225;19;20043;-64
2024/01/05 12:24:02;;;;;;;3.78;1.20;;;;;;;7.69;100.00;97068.28;15291728;19;20014;-63
2024/01/05 12:29:30;;;;;;;3.73;1.30;;;;;;;7.72;100.00;97067.88;15293739;19;20021;-64
2024/01/05 12:34:55;;;;;;;3.33;1.50;;;;;;;7.79;100.00;97083.28;15292651;19;20244;-64
2024/01/05 12:40:24;;;;;;;2.83;1.35;;;;;;;7.81;100.00;97067.88;15286970;19;20034;-62
2024/01/05 12:45:55;;;;;;;4.30;0.90;;;;;;;7.80;100.00;97068.88;15294099;19;20101;-63
2024/01/05 12:51:22;;;;;;;4.03;1.40;;;;;;;7.84;100.00;97070.16;15289722;19;20014;-63
2024/01/05 12:56:54;;;;;;;3.08;1.30;;;;;;;7.90;100.00;97071.31;15325954;19;20503;-62
2024/01/05 13:02:22;;;;;;;3.15;1.00;;;;;;;7.91;100.00;97065.78;15302267;19;20031;-63
2024/01/05 13:07:48;;;;;;;2.75;1.00;;;;;;;7.91;100.00;97060.41;15288998;19;20031;-63
2024/01/05 13:13:12;;;;;;;4.00;1.13;;;;;;;7.95;100.00;97055.53;15284078;19;20085;-63
2024/01/05 13:18:40;;;;;;;2.67;0.98;;;;;;;7.95;100.00;97056.34;15287172;19;20039;-64
2024/01/05 13:24:04;;;;;;;2.55;1.00;;;;;;;7.96;100.00;97051.84;15288599;19;20036;-64
2024/01/05 13:29:29;;;;;;;2.50;1.00;;;;;;;8.01;100.00;97062.84;15287214;19;20022;-64
2024/01/05 13:34:56;;;;;;;3.63;1.05;;;;;;;8.10;100.00;97055.59;15287787;19;20025;-64
2024/01/05 13:40:22;;;;;;;4.10;1.08;;;;;;;8.09;100.00;97060.13;15284577;19;20015;-64
2024/01/05 13:45:46;;;;;;;3.55;1.17;;;;;;;8.06;100.00;97057.78;15284717;19;20023;-64
2024/01/05 13:51:14;;;;;;;1.63;0.73;;;;;;;8.03;100.00;97055.47;15281369;19;20078;-64
2024/01/05 13:56:38;;;;;;;1.55;0.88;;;;;;;7.98;100.00;97039.91;15287727;19;20018;-65
2024/01/05 14:02:03;;;;;;;2.67;1.10;;;;;;;7.93;100.00;97041.47;15282426;19;20031;-64
2024/01/05 14:07:31;;;;;;;3.70;1.20;;;;;;;7.86;100.00;97044.03;15286486;19;20015;-64
2024/01/05 14:13:03;;;;;;;3.33;1.58;;;;;;;7.80;100.00;97050.09;15274774;19;20436;-66
2024/01/05 14:18:27;;;;;;;5.20;1.70;;;;;;;7.71;100.00;97052.00;15281730;19;20470;-64
2024/01/05 14:23:55;;;;;;;6.80;1.23;;;;;;;7.62;100.00;97056.56;15281219;19;20430;-65
2024/01/05 14:29:21;;;;;;;3.10;1.10;;;;;;;7.53;100.00;97042.38;15281827;19;20019;-64
2024/01/05 14:34:46;;;;;;;4.40;1.15;;;;;;;7.46;100.00;97045.94;15286986;19;20028;-64
2024/01/05 14:40:15;;;;;;;5.97;3.58;;;;;;;7.37;100.00;97043.28;15282330;19;20015;-64
2024/01/05 14:45:40;;;;;;;3.05;1.05;;;;;;;7.34;100.00;97027.59;15290599;19;20038;-63
2024/01/05 14:51:05;;;;;;;2.88;1.20;;;;;;;7.26;100.00;97016.91;15292757;19;20074;-64
2024/01/05 14:56:34;;;;;;;2.30;1.23;;;;;;;7.17;100.00;97010.75;15300300;19;20038;-64
2024/01/05 15:02:02;;;;;;;3.50;1.10;;;;;;;7.09;100.00;97008.94;15290303;19;20018;-65
2024/01/05 15:07:27;;;;;;;3.88;1.20;;;;;;;7.00;100.00;97004.63;15296196;19;20025;-64
2024/01/05 15:13:03;;;;;;;2.85;1.20;;;;;;;6.93;100.00;97011.69;15291426;19;20468;-64
2024/01/05 15:18:29;;;;;;;4.28;1.40;;;;;;;6.83;100.00;97008.38;15289519;19;20019;-64
2024/01/05 15:23:55;;;;;;;3.38;1.30;;;;;;;6.76;100.00;97016.25;15287742;19;20071;-63
2024/01/05 15:29:29;;;;;;;3.83;1.20;;;;;;;6.70;100.00;97020.47;15272465;19;20019;-54
2024/01/05 15:34:53;;;;;;;3.65;1.40;;;;;;;6.63;100.00;97031.00;15292866;19;20029;-51
2024/01/05 15:40:19;;;;;;;4.32;1.70;;;;;;;6.60;100.00;97025.16;15295144;19;20018;-53
2024/01/05 15:45:49;;;;;;;2.80;1.30;;;;;;;6.58;100.00;97027.16;15294373;19;20038;-54
2024/01/05 15:51:19;;;;;;;3.17;1.65;;;;;;;6.53;100.00;97034.84;15287574;19;20376;-54
2024/01/05 15:56:44;;;;;;;4.47;1.55;;;;;;;6.50;100.00;97035.22;15289160;19;20022;-55
2024/01/05 16:02:14;;;;;;;3.78;1.35;;;;;;;6.47;100.00;97036.38;15290109;19;20371;-54
2024/01/05 16:07:39;;;;;;;4.20;1.30;;;;;;;6.42;100.00;97033.41;15264896;19;20021;-52
2024/01/05 16:13:04;;;;;;;4.35;1.65;;;;;;;6.37;100.00;97031.22;15288653;19;20019;-56
2024/01/05 16:18:32;;;;;;;4.20;1.65;;;;;;;6.31;100.00;97045.25;15288140;19;20018;-54
2024/01/05 16:23:58;;;;;;;4.07;1.90;;;;;;;6.26;100.00;97048.44;15281240;19;20086;-54
2024/01/05 16:29:29;;;;;;;4.18;1.40;;;;;;;6.19;100.00;97054.63;15284830;19;20026;-55
2024/01/05 16:34:56;;;;;;;3.80;1.60;;;;;;;6.11;100.00;97069.66;15288904;19;20486;-53
2024/01/05 16:40:22;;;;;;;3.17;1.50;;;;;;;6.09;100.00;97079.69;15288360;19;20292;-54
2024/01/05 16:45:47;;;;;;;3.97;2.08;;;;;;;6.04;100.00;97084.72;15288248;19;20034;-53
2024/01/05 16:51:15;;;;;;;6.03;2.22;;;;;;;6.00;100.00;97089.53;15287974;19;20014;-53
2024/01/05 16:56:40;;;;;;;4.97;2.10;;;;;;;5.99;100.00;97093.25;15280555;19;20039;-55
2024/01/05 17:02:11;;;;;;;13.88;7.20;;;;;;;6.04;100.00;97105.25;15288548;19;20029;-50
2024/01/05 17:07:38;;;;;;;17.10;9.48;;;;;;;6.01;100.00;97090.38;15281724;19;20082;-52
2024/01/05 17:13:03;;;;;;;11.90;6.38;;;;;;;5.95;100.00;97096.34;15288589;19;20018;-54
2024/01/05 17:18:27;;;;;;;7.20;4.00;;;;;;;5.89;100.00;97094.34;15285410;19;20011;-51
2024/01/05 17:23:55;;;;;;;6.45;3.42;;;;;;;5.84;100.00;97100.19;15283494;19;20035;-53
2024/01/05 17:29:27;;;;;;;12.63;7.15;;;;;;;5.82;100.00;97099.50;15274883;19;20046;-52
2024/01/05 17:34:51;;;;;;;4.47;2.80;;;;;;;5.80;100.00;97110.38;15285764;19;20417;-51
2024/01/05 17:40:20;;;;;;;4.97;2.33;;;;;;;5.78;100.00;97123.06;15288517;19;20286;-54
2024/01/05 17:45:44;;;;;;;3.40;2.05;;;;;;;5.77;100.00;97126.72;15288166;19;20457;-54
2024/01/05 17:51:10;;;;;;;4.13;1.50;;;;;;;5.74;100.00;97137.72;15287008;19;20006;-54
2024/01/05 17:56:37;;;;;;;4.07;1.48;;;;;;;5.73;100.00;97141.41;15283375;19;20015;-54
2024/01/05 18:02:02;;;;;;;3.50;1.60;;;;;;;5.72;100.00;97153.09;15281693;19;20018;-54
2024/01/05 18:07:28;;;;;;;2.65;1.50;;;;;;;5.75;100.00;97155.44;15283430;19;20014;-53
2024/01/05 18:12:56;;;;;;;3.75;1.60;;;;;;;5.78;100.00;97155.13;15284241;19;20015;-55
2024/01/05 18:18:21;;;;;;;3.90;1.60;;;;;;;5.79;100.00;97153.28;15287525;19;20097;-56
2024/01/05 18:23:48;;;;;;;2.58;1.20;;;;;;;5.78;100.00;97155.13;15297153;19;20362;-50
2024/01/05 18:29:22;;;;;;;3.28;1.40;;;;;;;5.75;100.00;97155.44;15296377;19;20033;-56
2024/01/05 18:34:47;;;;;;;6.05;1.63;;;;;;;5.71;100.00;97157.59;15296317;19;20014;-55
2024/01/05 18:40:13;;;;;;;2.42;1.42;;;;;;;5.71;100.00;97176.31;15297261;19;20097;-54
2024/01/05 18:45:40;;;;;;;3.47;2.13;;;;;;;5.68;100.00;97176.63;15295086;19;20018;-52
2024/01/05 18:51:06;;;;;;;4.78;2.75;;;;;;;5.64;100.00;97174.44;15299519;19;20018;-53
2024/01/05 18:56:32;;;;;;;6.13;3.33;;;;;;;5.59;100.00;97172.25;15298526;19;20085;-51
2024/01/05 19:02:00;;;;;;;4.85;2.60;;;;;;;5.51;100.00;97165.03;15295347;19;20015;-55
2024/01/05 19:07:24;;;;;;;6.38;2.28;;;;;;;5.46;100.00;97177.19;15285873;19;20543;-55
2024/01/05 19:12:49;;;;;;;2.97;1.80;;;;;;;5.38;100.00;97164.63;15290913;19;20036;-51
2024/01/05 19:18:16;;;;;;;3.55;1.88;;;;;;;5.24;100.00;97161.56;15288271;19;20089;-52
2024/01/05 19:23:41;;;;;;;4.82;1.85;;;;;;;5.14;100.00;97174.19;15288957;19;20400;-50
2024/01/05 19:29:05;;;;;;;4.93;1.70;;;;;;;5.10;100.00;97183.53;15290471;19;20086;-51
2024/01/05 19:34:33;;;;;;;4.10;1.60;;;;;;;5.08;100.00;97186.34;15297312;19;20015;-51
2024/01/05 19:39:58;;;;;;;3.03;1.50;;;;;;;4.97;100.00;97196.44;15295229;19;20010;-54
2024/01/05 19:45:24;;;;;;;4.97;1.38;;;;;;;4.85;100.00;97201.19;15293239;19;20556;-52
2024/01/05 19:50:51;;;;;;;3.90;1.77;;;;;;;4.78;100.00;97206.28;15291947;19;20027;-54
2024/01/05 19:56:21;;;;;;;3.63;1.70;;;;;;;4.75;100.00;97206.63;15289821;19;20022;-55
2024/01/05 20:01:46;;;;;;;3.55;1.98;;;;;;;4.68;100.00;97209.06;15285875;19;20082;-55
2024/01/05 20:07:14;;;;;;;4.03;1.77;;;;;;;4.62;100.00;97215.88;15287805;19;20102;-54
2024/01/05 20:12:43;;;;;;;4.07;1.83;;;;;;;4.55;100.00;97213.97;15294663;19;20018;-55
2024/01/05 20:18:09;;;;;;;5.70;1.90;;;;;;;4.51;100.00;97200.09;15290617;19;20035;-54
2024/01/05 20:23:38;;;;;;;4.68;1.70;;;;;;;4.43;100.00;97194.66;15288469;19;20021;-56
2024/01/05 20:29:04;;;;;;;5.47;1.80;;;;;;;4.37;100.00;97205.97;15287821;19;20418;-56
2024/01/05 20:34:28;;;;;;;5.38;1.80;;;;;;;4.26;100.00;97204.34;15291828;19;20078;-55
2024/01/05 20:39:56;;;;;;;4.63;1.60;;;;;;;4.14;100.00;97214.41;15285025;19;20015;-56
2024/01/05 20:45:20;;;;;;;3.90;1.60;;;;;;;4.04;100.00;97221.63;15288835;19;20010;-53
2024/01/05 20:50:45;;;;;;;4.40;1.80;;;;;;;3.99;100.00;97232.72;15283017;19;20007;-52
2024/01/05 20:56:13;;;;;;;3.45;1.80;;;;;;;3.96;100.00;97247.16;15285641;19;20025;-56
2024/01/05 21:01:38;;;;;;;4.55;1.88;;;;;;;3.94;100.00;97235.81;15289275;19;20014;-54
2024/01/05 21:07:04;;;;;;;3.05;1.48;;;;;;;3.96;100.00;97238.34;15286490;19;20042;-54
2024/01/05 21:12:31;;;;;;;4.18;1.50;;;;;;;3.98;100.00;97247.88;15283965;19;20046;-54
2024/01/05 21:17:55;;;;;;;4.43;1.80;;;;;;;3.97;100.00;97246.19;15289470;19;20081;-56
2024/01/05 21:23:20;;;;;;;3.38;1.63;;;;;;;3.94;100.00;97251.81;15288399;19;20101;-56
2024/01/05 21:28:47;;;;;;;3.90;1.58;;;;;;;3.93;100.00;97254.63;15282300;19;20022;-55
2024/01/05 21:34:12;;;;;;;4.63;1.60;;;;;;;3.96;100.00;97246.34;15285530;19;20684;-55
2024/01/05 21:39:37;;;;;;;4.03;1.70;;;;;;;3.91;100.00;97236.13;15282706;19;20074;-55
2024/01/05 21:45:04;;;;;;;6.40;1.58;;;;;;;3.84;100.00;97241.22;15276401;19;20024;-54
2024/01/05 21:50:28;;;;;;;5.53;1.70;;;;;;;3.83;100.00;97238.69;15284486;19;20018;-52
2024/01/05 21:55:53;;;;;;;3.05;1.50;;;;;;;3.83;100.00;97246.66;15302190;19;21035;-53
2024/01/05 22:01:20;;;;;;;4.30;1.75;;;;;;;3.83;100.00;97254.66;15297594;19;20018;-55
2024/01/05 22:06:45;;;;;;;3.70;1.60;;;;;;;3.82;100.00;97259.16;15293552;19;20035;-56
2024/01/05 22:12:11;;;;;;;2.88;1.50;;;;;;;3.85;100.00;97260.69;15296546;19;20037;-55
2024/01/05 22:17:39;;;;;;;4.63;1.65;;;;;;;3.92;100.00;97258.28;15289841;19;20018;-56
2024/01/05 22:23:04;;;;;;;3.63;1.45;;;;;;;3.99;100.00;97259.38;15293654;19;20359;-54
2024/01/05 22:28:28;;;;;;;4.38;1.30;;;;;;;3.98;100.00;97257.69;15289988;19;20022;-56
2024/01/05 22:33:55;;;;;;;4.10;1.50;;;;;;;3.95;100.00;97268.66;15297026;19;20443;-55
2024/01/05 22:39:20;;;;;;;2.58;1.50;;;;;;;3.94;100.00;97270.44;15292144;19;20021;-56
2024/01/05 22:44:45;;;;;;;3.75;1.52;;;;;;;3.92;100.00;97269.78;15297330;19;20543;-54
2024/01/05 22:50:12;;;;;;;4.47;1.80;;;;;;;3.88;100.00;97260.41;15296205;19;20793;-53
2024/01/05 22:55:37;;;;;;;4.60;1.70;;;;;;;3.83;100.00;97260.00;15297782;19;20033;-54
2024/01/05 23:01:01;;;;;;;4.72;1.70;;;;;;;3.76;100.00;97258.91;15301088;19;20010;-54
2024/01/05 23:06:28;;;;;;;5.25;1.55;;;;;;;3.68;100.00;97265.81;15293527;19;20054;-57
2024/01/05 23:11:54;;;;;;;3.65;1.70;;;;;;;3.65;100.00;97265.25;15295717;19;20021;-54
2024/01/05 23:17:19;;;;;;;5.40;1.88;;;;;;;3.60;100.00;97267.53;15291142;19;20097;-52
2024/01/05 23:22:46;;;;;;;2.90;1.63;;;;;;;3.55;100.00;97270.63;15289005;19;20336;-56
2024/01/05 23:28:11;;;;;;;3.78;1.60;;;;;;;3.49;100.00;97263.22;15288002;19;20488;-52
2024/01/05 23:33:36;;;;;;;3.55;1.40;;;;;;;3.46;100.00;97271.50;15295477;19;20022;-54
2024/01/05 23:39:04;;;;;;;5.10;1.50;;;;;;;3.47;100.00;97275.84;15287587;19;20029;-55
2024/01/05 23:44:35;;;;;;;2.92;1.45;;;;;;;3.45;100.00;97283.97;15294844;19;20106;-54
2024/01/05 23:50:00;;;;;;;4.50;1.60;;;;;;;3.38;100.00;97272.22;15296948;19;20021;-52
2024/01/05 23:55:27;;;;;;;3.40;1.63;;;;;;;3.37;100.00;97289.19;15285717;19;20029;-54
